Time;durP1;ratioP1;P1;durP2;ratioP2;P2;SDS_P1;SDS_P2;PMS_P1;PMS_P2;Temp;Humidity;BMP_temperature;BMP_pressure;BME280_temperature;BME280_humidity;BME280_pressure;Samples;Min_cycle;Max_cycle;Signal;HPM_P1;HPM_P2
2023/01/30 00:00:05;;;;;;;;;;;2.50;99.60;;;;;;5004617;28;20530;-68
2023/01/30 00:02:30;;;;;;;;;;;2.50;99.90;;;;;;4999232;28;20000;-68
2023/01/30 00:04:56;;;;;;;;;;;2.60;99.80;;;;;;5008620;28;20000;-68
2023/01/30 00:07:21;;;;;;;;;;;2.60;99.70;;;;;;5007319;28;19921;-68
2023/01/30 00:09:47;;;;;;;;;;;2.60;99.60;;;;;;5009004;28;19991;-68
2023/01/30 00:12:12;;;;;;;;;;;2.60;99.90;;;;;;5007756;28;19909;-68
2023/01/30 00:14:37;;;;;;;;;;;2.60;99.70;;;;;;5007674;28;19909;-68
2023/01/30 00:17:03;;;;;;;;;;;2.60;99.70;;;;;;5008241;28;19932;-68
2023/01/30 00:19:28;;;;;;;;;;;2.60;99.70;;;;;;5008271;28;19917;-68
2023/01/30 00:21:54;;;;;;;;;;;2.60;99.80;;;;;;5008535;28;19967;-68
2023/01/30 00:24:19;;;;;;;;;;;2.60;99.90;;;;;;5007121;28;20455;-68
2023/01/30 00:26:45;;;;;;;;;;;2.70;99.80;;;;;;5008274;28;20043;-68
2023/01/30 00:29:10;;;;;;;;;;;2.60;99.80;;;;;;5008369;28;19913;-68
2023/01/30 00:31:36;;;;;;;;;;;2.60;99.90;;;;;;5003307;28;19913;-68
2023/01/30 00:34:01;;;;;;;;;;;2.70;99.90;;;;;;4986124;28;19924;-68
2023/01/30 00:36:27;;;;;;;;;;;2.60;99.90;;;;;;4987803;28;19913;-68
2023/01/30 00:38:55;;;;;;;;;;;2.70;99.90;;;;;;4988330;28;19914;-68
2023/01/30 00:41:20;;;;;;;;;;;2.70;99.90;;;;;;4987166;28;19914;-66
2023/01/30 00:49:15;;;;;;;;;;;2.70;99.90;;;;;;5004456;28;19921;-66
2023/01/30 00:51:41;;;;;;;;;;;2.70;99.90;;;;;;5007846;28;19918;-66
2023/01/30 00:54:06;;;;;;;;;;;2.70;99.90;;;;;;5004135;28;19917;-66
2023/01/30 00:56:32;;;;;;;;;;;2.70;99.90;;;;;;5007483;28;20004;-66
2023/01/30 00:58:58;;;;;;;;;;;2.70;99.90;;;;;;5007607;28;20585;-66
2023/01/30 01:01:23;;;;;;;;;;;2.70;99.90;;;;;;5005270;28;19931;-66
2023/01/30 01:03:49;;;;;;;;;;;2.70;99.90;;;;;;5000438;28;20275;-66
2023/01/30 01:06:14;;;;;;;;;;;2.70;99.90;;;;;;5007581;28;19913;-66
2023/01/30 01:08:39;;;;;;;;;;;2.80;99.90;;;;;;5007717;28;19921;-66
2023/01/30 01:11:05;;;;;;;;;;;2.80;99.90;;;;;;5007863;28;20526;-66
2023/01/30 01:13:30;;;;;;;;;;;2.80;99.90;;;;;;5007950;28;19917;-66
2023/01/30 01:15:56;;;;;;;;;;;2.80;99.90;;;;;;5007870;28;19948;-66
2023/01/30 01:18:21;;;;;;;;;;;2.80;99.90;;;;;;5007790;28;19936;-66
2023/01/30 01:20:47;;;;;;;;;;;2.80;99.90;;;;;;5007301;28;20282;-66
2023/01/30 01:23:12;;;;;;;;;;;2.80;99.90;;;;;;5007804;28;20614;-66
2023/01/30 01:25:38;;;;;;;;;;;2.80;99.90;;;;;;5007296;28;20616;-66
2023/01/30 01:28:03;;;;;;;;;;;2.80;99.90;;;;;;5007375;28;19919;-66
2023/01/30 01:30:29;;;;;;;;;;;2.80;99.90;;;;;;5007026;28;19936;-66
2023/01/30 01:32:55;;;;;;;;;;;2.80;99.90;;;;;;5003344;28;19956;-65
2023/01/30 01:35:20;;;;;;;;;;;2.80;99.90;;;;;;5007449;28;20636;-66
2023/01/30 01:37:46;;;;;;;;;;;2.80;99.90;;;;;;5007311;28;19924;-66
2023/01/30 01:43:01;;;;;;;;;;;2.90;99.90;;;;;;5007551;28;19987;-66
2023/01/30 01:45:26;;;;;;;;;;;2.90;99.90;;;;;;5007506;28;19913;-66
2023/01/30 01:48:01;;;;;;;;;;;2.90;99.90;;;;;;5007301;28;19909;-66
2023/01/30 01:50:36;;;;;;;;;;;2.90;99.90;;;;;;5004005;28;19920;-66
2023/01/30 01:53:01;;;;;;;;;;;2.90;99.90;;;;;;5007238;28;19984;-66
2023/01/30 01:55:28;;;;;;;;;;;2.90;99.90;;;;;;5006538;28;19956;-66
2023/01/30 01:57:55;;;;;;;;;;;2.90;99.90;;;;;;5006838;28;19914;-65
2023/01/30 02:00:21;;;;;;;;;;;2.90;99.90;;;;;;5006104;28;19914;-66
2023/01/30 02:02:48;;;;;;;;;;;2.90;99.90;;;;;;5005033;28;19918;-66
2023/01/30 02:05:14;;;;;;;;;;;2.90;99.90;;;;;;5006889;28;20661;-66
2023/01/30 02:07:45;;;;;;;;;;;2.90;99.90;;;;;;5006934;28;19913;-65
2023/01/30 02:10:14;;;;;;;;;;;2.90;99.90;;;;;;5006467;28;20290;-66
2023/01/30 02:12:40;;;;;;;;;;;2.90;99.90;;;;;;5007108;28;20286;-66
2023/01/30 02:15:05;;;;;;;;;;;3.00;99.90;;;;;;5006642;28;19909;-66
2023/01/30 02:17:31;;;;;;;;;;;3.00;99.90;;;;;;5006521;28;19964;-65
2023/01/30 02:20:03;;;;;;;;;;;3.00;99.90;;;;;;5009016;28;20044;-66
2023/01/30 02:22:48;;;;;;;;;;;3.00;99.90;;;;;;5010762;28;19963;-66
2023/01/30 02:25:32;;;;;;;;;;;3.00;99.90;;;;;;5010740;28;19913;-66
2023/01/30 02:28:21;;;;;;;;;;;3.00;99.90;;;;;;5010514;28;20422;-66
2023/01/30 02:31:03;;;;;;;;;;;3.00;99.90;;;;;;4972578;28;19940;-66
2023/01/30 02:33:50;;;;;;;;;;;3.00;99.90;;;;;;5015948;28;19920;-66
2023/01/30 02:36:31;;;;;;;;;;;3.00;99.90;;;;;;5010376;28;19910;-66
2023/01/30 02:39:09;;;;;;;;;;;3.00;99.90;;;;;;5010733;28;19931;-66
2023/01/30 02:41:41;;;;;;;;;;;3.00;99.90;;;;;;5010284;28;19925;-66
2023/01/30 02:44:25;;;;;;;;;;;3.10;99.90;;;;;;5010468;28;19924;-66
2023/01/30 02:46:56;;;;;;;;;;;3.10;99.90;;;;;;5010541;28;19916;-66
2023/01/30 02:49:21;;;;;;;;;;;3.10;99.90;;;;;;5010436;28;19917;-66
2023/01/30 02:51:48;;;;;;;;;;;3.10;99.90;;;;;;5009599;28;20260;-66
2023/01/30 02:54:14;;;;;;;;;;;3.10;99.90;;;;;;5005487;28;19964;-66
2023/01/30 02:56:53;;;;;;;;;;;3.10;99.90;;;;;;5002537;28;19945;-66
2023/01/30 02:59:23;;;;;;;;;;;3.10;99.90;;;;;;5009778;28;20635;-66
2023/01/30 03:01:49;;;;;;;;;;;3.10;99.90;;;;;;5004580;28;19914;-66
2023/01/30 03:04:34;;;;;;;;;;;3.20;99.90;;;;;;5005567;28;19914;-66
2023/01/30 03:07:18;;;;;;;;;;;3.10;99.90;;;;;;5009082;28;19913;-66
2023/01/30 03:09:50;;;;;;;;;;;3.20;99.90;;;;;;5008159;28;19910;-66
2023/01/30 03:12:20;;;;;;;;;;;3.20;99.90;;;;;;5009857;28;20669;-66
2023/01/30 03:14:51;;;;;;;;;;;3.20;99.90;;;;;;5010282;28;19917;-66
2023/01/30 03:17:18;;;;;;;;;;;3.20;99.90;;;;;;5009742;28;19924;-66
2023/01/30 03:19:43;;;;;;;;;;;3.20;99.90;;;;;;5009085;28;19955;-66
2023/01/30 03:22:09;;;;;;;;;;;3.20;99.90;;;;;;5010007;28;19977;-65
2023/01/30 03:24:34;;;;;;;;;;;3.20;99.90;;;;;;5009726;28;19913;-66
2023/01/30 03:27:10;;;;;;;;;;;3.20;99.90;;;;;;5009141;28;19917;-66
2023/01/30 03:29:36;;;;;;;;;;;3.20;99.90;;;;;;5009053;28;19914;-66
2023/01/30 03:32:01;;;;;;;;;;;3.30;99.90;;;;;;5005008;28;19918;-66
2023/01/30 03:34:27;;;;;;;;;;;3.20;99.90;;;;;;5009549;28;19913;-66
2023/01/30 03:36:52;;;;;;;;;;;3.20;99.90;;;;;;5009006;28;19956;-66
2023/01/30 03:39:18;;;;;;;;;;;3.20;99.90;;;;;;5009219;28;19910;-66
2023/01/30 03:41:44;;;;;;;;;;;3.20;99.90;;;;;;5008674;28;19921;-66
2023/01/30 03:44:09;;;;;;;;;;;3.30;99.90;;;;;;5008663;28;19918;-66
2023/01/30 03:46:35;;;;;;;;;;;3.30;99.90;;;;;;5009091;28;19909;-66
2023/01/30 03:49:00;;;;;;;;;;;3.30;99.90;;;;;;5009156;28;20329;-66
2023/01/30 03:51:26;;;;;;;;;;;3.30;99.90;;;;;;5008910;28;19945;-67
2023/01/30 03:53:51;;;;;;;;;;;3.30;99.90;;;;;;5006164;28;20005;-66
2023/01/30 03:56:17;;;;;;;;;;;3.30;99.90;;;;;;5008779;28;20609;-65
2023/01/30 03:58:42;;;;;;;;;;;3.30;99.90;;;;;;5002854;28;20008;-66
2023/01/30 04:01:08;;;;;;;;;;;3.30;99.90;;;;;;4996515;28;20413;-67
2023/01/30 04:03:33;;;;;;;;;;;3.40;99.90;;;;;;5006968;28;19918;-66
2023/01/30 04:05:59;;;;;;;;;;;3.40;99.90;;;;;;5008853;28;19961;-67
2023/01/30 04:08:24;;;;;;;;;;;3.40;99.90;;;;;;5008153;28;19909;-66
2023/01/30 04:10:50;;;;;;;;;;;3.40;99.90;;;;;;5008327;28;19938;-66
2023/01/30 04:13:15;;;;;;;;;;;3.40;99.90;;;;;;5008424;28;19909;-66
2023/01/30 04:15:40;;;;;;;;;;;3.40;99.90;;;;;;5008375;28;19925;-66
2023/01/30 04:18:06;;;;;;;;;;;3.40;99.90;;;;;;5008511;28;20031;-66
2023/01/30 04:20:31;;;;;;;;;;;3.40;99.90;;;;;;5008430;28;19972;-66
2023/01/30 04:22:57;;;;;;;;;;;3.40;99.90;;;;;;5006437;28;19915;-66
2023/01/30 04:25:22;;;;;;;;;;;3.40;99.90;;;;;;4998468;28;19916;-66
2023/01/30 04:27:48;;;;;;;;;;;3.50;99.90;;;;;;5008407;28;19909;-66
2023/01/30 04:30:14;;;;;;;;;;;3.50;99.90;;;;;;5007937;28;19961;-66
2023/01/30 04:32:45;;;;;;;;;;;3.50;99.90;;;;;;5003426;28;19914;-66
2023/01/30 04:35:11;;;;;;;;;;;3.50;99.90;;;;;;5001535;28;20570;-66
2023/01/30 04:37:36;;;;;;;;;;;3.50;99.90;;;;;;4995589;28;19917;-65
2023/01/30 04:40:02;;;;;;;;;;;3.50;99.90;;;;;;4987939;28;20038;-65
2023/01/30 04:42:27;;;;;;;;;;;3.50;99.90;;;;;;4987199;28;20447;-65
2023/01/30 04:44:52;;;;;;;;;;;3.50;99.90;;;;;;4987575;28;19921;-65
2023/01/30 04:47:18;;;;;;;;;;;3.50;99.90;;;;;;4970629;28;19913;-65
2023/01/30 04:49:43;;;;;;;;;;;3.50;99.90;;;;;;5006516;28;19913;-65
2023/01/30 04:52:09;;;;;;;;;;;3.50;99.90;;;;;;5008079;28;19913;-65
2023/01/30 04:54:34;;;;;;;;;;;3.50;99.90;;;;;;5007744;28;19913;-65
2023/01/30 04:57:00;;;;;;;;;;;3.50;99.90;;;;;;5007820;28;19909;-65
2023/01/30 04:59:25;;;;;;;;;;;3.50;99.90;;;;;;5007506;28;19913;-65
2023/01/30 05:01:51;;;;;;;;;;;3.50;99.90;;;;;;5002286;28;19978;-65
2023/01/30 05:04:16;;;;;;;;;;;3.50;99.90;;;;;;5004371;28;20548;-65
2023/01/30 05:06:42;;;;;;;;;;;3.50;99.90;;;;;;5007558;28;20351;-65
2023/01/30 05:09:08;;;;;;;;;;;3.50;99.90;;;;;;5007732;28;19910;-65
2023/01/30 05:11:33;;;;;;;;;;;3.60;99.90;;;;;;5007195;28;20463;-65
2023/01/30 05:13:59;;;;;;;;;;;3.60;99.90;;;;;;5007368;28;19945;-65
2023/01/30 05:16:25;;;;;;;;;;;3.60;99.90;;;;;;5007310;28;19927;-66
2023/01/30 05:18:50;;;;;;;;;;;3.60;99.90;;;;;;5007334;28;19913;-66
2023/01/30 05:21:17;;;;;;;;;;;3.60;99.90;;;;;;5007109;28;19972;-65
2023/01/30 05:23:43;;;;;;;;;;;3.60;99.90;;;;;;5007471;28;20022;-65
2023/01/30 05:26:10;;;;;;;;;;;3.60;99.90;;;;;;5007208;28;20771;-65
2023/01/30 05:28:35;;;;;;;;;;;3.60;99.90;;;;;;5007405;28;19917;-65
2023/01/30 05:31:02;;;;;;;;;;;3.60;99.90;;;;;;5004241;28;20386;-65
2023/01/30 05:33:27;;;;;;;;;;;3.60;99.90;;;;;;5005701;28;19910;-65
2023/01/30 05:35:53;;;;;;;;;;;3.60;99.90;;;;;;4989422;28;19920;-66
2023/01/30 05:38:18;;;;;;;;;;;3.60;99.90;;;;;;5006558;28;20708;-68
2023/01/30 05:40:44;;;;;;;;;;;3.60;99.90;;;;;;5005870;28;19918;-66
2023/01/30 05:43:09;;;;;;;;;;;3.70;99.90;;;;;;5006894;28;19921;-65
2023/01/30 05:45:35;;;;;;;;;;;3.70;99.90;;;;;;5006605;28;19914;-65
2023/01/30 05:48:01;;;;;;;;;;;3.70;99.90;;;;;;5007212;28;20043;-65
2023/01/30 05:50:27;;;;;;;;;;;3.70;99.90;;;;;;5006607;28;19913;-65
2023/01/30 05:52:52;;;;;;;;;;;3.70;99.90;;;;;;5007157;28;19913;-65
2023/01/30 05:55:18;;;;;;;;;;;3.70;99.90;;;;;;4997445;28;19914;-66
2023/01/30 05:57:43;;;;;;;;;;;3.70;99.90;;;;;;4987494;28;20017;-65
2023/01/30 06:00:09;;;;;;;;;;;3.70;99.90;;;;;;4987285;28;20673;-65
2023/01/30 06:02:35;;;;;;;;;;;3.70;99.90;;;;;;4997256;28;20393;-65
2023/01/30 06:05:00;;;;;;;;;;;3.70;99.90;;;;;;5004583;28;19913;-65
2023/01/30 06:07:26;;;;;;;;;;;3.80;99.90;;;;;;5006930;28;20248;-65
2023/01/30 06:09:51;;;;;;;;;;;3.80;99.90;;;;;;5006652;28;19924;-66
2023/01/30 06:12:17;;;;;;;;;;;3.80;99.90;;;;;;5006333;28;19992;-65
2023/01/30 06:14:42;;;;;;;;;;;3.80;99.90;;;;;;5006130;28;20571;-66
2023/01/30 06:17:08;;;;;;;;;;;3.80;99.90;;;;;;5006122;28;20263;-65
2023/01/30 06:19:33;;;;;;;;;;;3.80;99.90;;;;;;4988711;28;19913;-65
2023/01/30 06:21:59;;;;;;;;;;;3.90;99.90;;;;;;5007119;28;19913;-65
2023/01/30 06:24:24;;;;;;;;;;;3.90;99.90;;;;;;5006809;28;19921;-65
2023/01/30 06:26:49;;;;;;;;;;;3.90;99.90;;;;;;5006585;28;19913;-65
2023/01/30 06:29:15;;;;;;;;;;;3.90;99.90;;;;;;5006506;28;19996;-66
2023/01/30 06:31:41;;;;;;;;;;;3.90;99.90;;;;;;5006197;28;19921;-66
2023/01/30 06:34:06;;;;;;;;;;;3.90;99.90;;;;;;5005774;28;19952;-65
2023/01/30 06:36:31;;;;;;;;;;;3.90;99.90;;;;;;5006193;28;19914;-65
2023/01/30 06:38:57;;;;;;;;;;;4.00;99.90;;;;;;5006868;28;19917;-65
2023/01/30 06:41:22;;;;;;;;;;;3.90;99.90;;;;;;5006090;28;20038;-65
2023/01/30 06:43:48;;;;;;;;;;;4.00;99.90;;;;;;5006215;28;20286;-66
2023/01/30 06:46:13;;;;;;;;;;;4.00;99.90;;;;;;5006363;28;19917;-65
2023/01/30 06:48:39;;;;;;;;;;;4.00;99.90;;;;;;5006491;28;20270;-65
2023/01/30 06:51:04;;;;;;;;;;;4.00;99.90;;;;;;5006298;28;20547;-67
2023/01/30 06:53:30;;;;;;;;;;;4.00;99.90;;;;;;5006446;28;20359;-65
2023/01/30 06:55:59;;;;;;;;;;;4.00;99.90;;;;;;5004825;28;19921;-66
2023/01/30 06:58:25;;;;;;;;;;;4.00;99.90;;;;;;5006169;28;19921;-66
2023/01/30 07:00:50;;;;;;;;;;;4.10;99.90;;;;;;5005994;28;19918;-65
2023/01/30 07:03:17;;;;;;;;;;;4.10;99.90;;;;;;4997526;28;20298;-66
2023/01/30 07:05:44;;;;;;;;;;;4.10;99.90;;;;;;5008232;28;19992;-65
2023/01/30 07:08:10;;;;;;;;;;;4.10;99.90;;;;;;5010348;28;20020;-66
2023/01/30 07:10:36;;;;;;;;;;;4.10;99.90;;;;;;5009419;28;20020;-65
2023/01/30 07:13:02;;;;;;;;;;;4.10;99.90;;;;;;5010107;28;19918;-65
2023/01/30 07:15:27;;;;;;;;;;;4.20;99.90;;;;;;5009490;28;19917;-66
2023/01/30 07:17:53;;;;;;;;;;;4.10;99.90;;;;;;5010041;28;19916;-65
2023/01/30 07:20:18;;;;;;;;;;;4.20;99.90;;;;;;5009418;28;20424;-66
2023/01/30 07:22:54;;;;;;;;;;;4.20;99.90;;;;;;5009920;28;19956;-66
2023/01/30 07:25:20;;;;;;;;;;;4.20;99.90;;;;;;5009635;28;19947;-66
2023/01/30 07:27:49;;;;;;;;;;;4.20;99.90;;;;;;5010055;28;19910;-66
2023/01/30 07:30:14;;;;;;;;;;;4.20;99.90;;;;;;5009273;28;19967;-66
2023/01/30 07:32:40;;;;;;;;;;;4.20;99.90;;;;;;5005366;28;19953;-65
2023/01/30 07:35:05;;;;;;;;;;;4.20;99.90;;;;;;5009815;28;19915;-65
2023/01/30 07:37:31;;;;;;;;;;;4.20;99.90;;;;;;5009396;28;19918;-66
2023/01/30 07:39:57;;;;;;;;;;;4.20;99.90;;;;;;5008832;28;19953;-66
2023/01/30 07:42:22;;;;;;;;;;;4.20;99.90;;;;;;5009307;28;19968;-66
2023/01/30 07:44:47;;;;;;;;;;;4.30;99.90;;;;;;5009057;28;19917;-66
2023/01/30 07:47:13;;;;;;;;;;;4.30;99.90;;;;;;5009280;28;19944;-65
2023/01/30 07:49:39;;;;;;;;;;;4.30;99.90;;;;;;5008871;28;19914;-66
2023/01/30 07:52:04;;;;;;;;;;;4.30;99.90;;;;;;5009106;28;19949;-65
2023/01/30 07:54:30;;;;;;;;;;;4.30;99.90;;;;;;5008768;28;20563;-66
2023/01/30 07:56:55;;;;;;;;;;;4.30;99.90;;;;;;5006457;28;20447;-66
2023/01/30 07:59:21;;;;;;;;;;;4.40;99.90;;;;;;4991130;28;20327;-65
2023/01/30 08:01:46;;;;;;;;;;;4.30;99.90;;;;;;5003986;28;19996;-65
2023/01/30 08:04:12;;;;;;;;;;;4.40;99.90;;;;;;5004866;28;19913;-66
2023/01/30 08:06:38;;;;;;;;;;;4.40;99.90;;;;;;5009002;28;19909;-65
2023/01/30 08:09:05;;;;;;;;;;;4.30;99.90;;;;;;5008634;28;19988;-65
2023/01/30 08:11:30;;;;;;;;;;;4.30;99.90;;;;;;5008458;28;19913;-66
2023/01/30 08:13:56;;;;;;;;;;;4.30;99.90;;;;;;5008767;28;19947;-66
2023/01/30 08:16:21;;;;;;;;;;;4.40;99.90;;;;;;5007518;28;19952;-66
2023/01/30 08:18:47;;;;;;;;;;;4.40;99.90;;;;;;5008280;28;19967;-66
2023/01/30 08:21:12;;;;;;;;;;;4.40;99.90;;;;;;5008227;28;19956;-66
2023/01/30 08:23:38;;;;;;;;;;;4.40;99.90;;;;;;5007831;28;20314;-66
2023/01/30 08:26:03;;;;;;;;;;;4.40;99.90;;;;;;5007773;28;19910;-65
2023/01/30 08:28:29;;;;;;;;;;;4.40;99.90;;;;;;5008107;28;20052;-66
2023/01/30 08:30:55;;;;;;;;;;;4.40;99.90;;;;;;5007615;28;19914;-66
2023/01/30 08:33:21;;;;;;;;;;;4.50;99.90;;;;;;5008253;28;19910;-65
2023/01/30 08:35:46;;;;;;;;;;;4.40;99.90;;;;;;5008230;28;19918;-66
2023/01/30 08:38:12;;;;;;;;;;;4.50;99.90;;;;;;4990725;28;19940;-66
2023/01/30 08:40:38;;;;;;;;;;;4.50;99.90;;;;;;5007760;28;20708;-66
2023/01/30 08:43:03;;;;;;;;;;;4.50;99.90;;;;;;5008253;28;19921;-66
2023/01/30 08:45:29;;;;;;;;;;;4.50;99.90;;;;;;5008122;28;19913;-65
2023/01/30 08:48:02;;;;;;;;;;;4.50;99.90;;;;;;4991524;28;19910;-66
2023/01/30 08:50:28;;;;;;;;;;;4.50;99.90;;;;;;5007368;28;19932;-65
2023/01/30 08:52:53;;;;;;;;;;;4.50;99.90;;;;;;5007411;28;19910;-66
2023/01/30 08:55:19;;;;;;;;;;;4.50;99.90;;;;;;5007011;28;19920;-66
2023/01/30 08:57:45;;;;;;;;;;;4.60;99.90;;;;;;5006931;28;19914;-66
2023/01/30 09:00:11;;;;;;;;;;;4.60;99.90;;;;;;5006873;28;20430;-65
2023/01/30 09:02:37;;;;;;;;;;;4.60;99.90;;;;;;4981638;28;19914;-66
2023/01/30 09:05:03;;;;;;;;;;;4.60;99.90;;;;;;5007947;28;20442;-66
2023/01/30 09:07:43;;;;;;;;;;;4.60;99.90;;;;;;5006725;28;20567;-66
2023/01/30 09:10:09;;;;;;;;;;;4.60;99.90;;;;;;5007650;28;19914;-65
2023/01/30 09:12:34;;;;;;;;;;;4.60;99.90;;;;;;5008279;28;19917;-66
2023/01/30 09:15:00;;;;;;;;;;;4.70;99.90;;;;;;5007747;28;20637;-66
2023/01/30 09:17:25;;;;;;;;;;;4.70;99.90;;;;;;5007533;28;19941;-66
2023/01/30 09:19:51;;;;;;;;;;;4.70;99.90;;;;;;5007061;28;19928;-67
2023/01/30 09:22:16;;;;;;;;;;;4.70;99.90;;;;;;5007697;28;19913;-66
2023/01/30 09:24:42;;;;;;;;;;;4.70;99.90;;;;;;5007459;28;19909;-66
2023/01/30 09:27:07;;;;;;;;;;;4.70;99.90;;;;;;5007447;28;19924;-65
2023/01/30 09:29:33;;;;;;;;;;;4.80;99.90;;;;;;5006983;28;20393;-66
2023/01/30 09:31:58;;;;;;;;;;;4.70;99.90;;;;;;5003066;28;19910;-66
2023/01/30 09:34:27;;;;;;;;;;;4.80;99.90;;;;;;5006827;28;20355;-66
2023/01/30 09:36:56;;;;;;;;;;;4.80;99.90;;;;;;5006438;28;19909;-66
2023/01/30 09:39:21;;;;;;;;;;;4.80;99.90;;;;;;5007110;28;19924;-66
2023/01/30 09:41:52;;;;;;;;;;;4.80;99.90;;;;;;5007257;28;20000;-66
2023/01/30 09:44:33;;;;;;;;;;;4.80;99.90;;;;;;5007462;28;19940;-66
2023/01/30 09:47:09;;;;;;;;;;;4.80;99.90;;;;;;5007132;28;20011;-66
2023/01/30 09:49:37;;;;;;;;;;;4.80;99.90;;;;;;5005833;28;19988;-66
2023/01/30 09:52:15;;;;;;;;;;;4.90;99.90;;;;;;5007049;28;20393;-66
2023/01/30 09:54:43;;;;;;;;;;;5.00;99.90;;;;;;5006281;28;19910;-66
2023/01/30 09:57:21;;;;;;;;;;;4.90;99.90;;;;;;5006579;28;19914;-66
2023/01/30 10:00:01;;;;;;;;;;;5.00;99.90;;;;;;5002741;28;20023;-66
2023/01/30 10:02:26;;;;;;;;;;;4.90;99.90;;;;;;4996566;28;19917;-66
2023/01/30 10:04:55;;;;;;;;;;;5.00;99.90;;;;;;5007056;28;20426;-65
2023/01/30 10:07:30;;;;;;;;;;;5.00;99.90;;;;;;5006803;28;19921;-66
2023/01/30 10:10:02;;;;;;;;;;;5.00;99.90;;;;;;5006775;28;19909;-66
2023/01/30 10:12:46;;;;;;;;;;;4.90;99.90;;;;;;5006847;28;19913;-66
2023/01/30 10:15:15;;;;;;;;;;;5.00;99.90;;;;;;5006907;28;20271;-66
2023/01/30 10:17:40;;;;;;;;;;;5.00;99.90;;;;;;5006807;28;19913;-66
2023/01/30 10:20:15;;;;;;;;;;;5.00;99.90;;;;;;5006509;28;20252;-66
2023/01/30 10:22:40;;;;;;;;;;;5.00;99.90;;;;;;5006792;28;19910;-66
2023/01/30 10:25:24;;;;;;;;;;;5.00;99.90;;;;;;5006798;28;19935;-66
2023/01/30 10:27:53;;;;;;;;;;;5.10;99.90;;;;;;5006832;28;20436;-66
2023/01/30 10:30:19;;;;;;;;;;;5.10;99.90;;;;;;5006458;28;20392;-66
2023/01/30 10:32:52;;;;;;;;;;;5.10;99.90;;;;;;5006559;28;19914;-66
2023/01/30 10:35:19;;;;;;;;;;;5.10;99.90;;;;;;5006987;28;19940;-66
2023/01/30 10:37:51;;;;;;;;;;;5.10;99.90;;;;;;5006575;28;19914;-66
2023/01/30 10:40:29;;;;;;;;;;;5.20;99.90;;;;;;5007859;28;19920;-66
2023/01/30 10:43:14;;;;;;;;;;;5.20;99.90;;;;;;4992870;28;20426;-66
2023/01/30 10:46:05;;;;;;;;;;;5.20;99.90;;;;;;5010626;28;19910;-66
2023/01/30 10:48:31;;;;;;;;;;;5.20;99.90;;;;;;5007538;28;20016;-66
2023/01/30 10:51:02;;;;;;;;;;;5.20;99.90;;;;;;5010306;28;20013;-66
2023/01/30 10:53:34;;;;;;;;;;;5.20;99.90;;;;;;5009046;28;19963;-66
2023/01/30 10:56:07;;;;;;;;;;;5.20;99.90;;;;;;4996226;28;19919;-66
2023/01/30 10:58:39;;;;;;;;;;;5.20;99.90;;;;;;5009603;28;19909;-66
2023/01/30 11:01:06;;;;;;;;;;;5.20;99.90;;;;;;5009690;28;19917;-66
2023/01/30 11:03:34;;;;;;;;;;;5.20;99.90;;;;;;5001919;28;19924;-66
2023/01/30 11:06:09;;;;;;;;;;;5.20;99.90;;;;;;5010307;28;19914;-65
2023/01/30 11:08:35;;;;;;;;;;;5.20;99.90;;;;;;5009288;28;19996;-66
2023/01/30 11:11:19;;;;;;;;;;;5.30;99.90;;;;;;5008512;28;20024;-66
2023/01/30 11:13:44;;;;;;;;;;;5.30;99.90;;;;;;4992054;28;19999;-66
2023/01/30 11:16:11;;;;;;;;;;;5.30;99.90;;;;;;5009694;28;20076;-66
2023/01/30 11:18:47;;;;;;;;;;;5.30;99.90;;;;;;5009849;28;20408;-66
2023/01/30 11:21:25;;;;;;;;;;;5.30;99.90;;;;;;5009567;28;19917;-66
2023/01/30 11:23:52;;;;;;;;;;;5.30;99.90;;;;;;5010191;28;20317;-66
2023/01/30 11:26:20;;;;;;;;;;;5.30;99.90;;;;;;5009571;28;19914;-66
2023/01/30 11:28:45;;;;;;;;;;;5.30;99.90;;;;;;5009928;28;20341;-66
2023/01/30 11:31:23;;;;;;;;;;;5.30;99.90;;;;;;5008995;28;19917;-66
2023/01/30 11:34:04;;;;;;;;;;;5.30;99.90;;;;;;5001911;28;19955;-66
2023/01/30 11:36:30;;;;;;;;;;;5.30;99.90;;;;;;4992008;28;19914;-66
2023/01/30 11:38:58;;;;;;;;;;;5.30;99.90;;;;;;5009504;28;19910;-66
2023/01/30 11:41:23;;;;;;;;;;;5.40;99.90;;;;;;5009049;28;20492;-66
2023/01/30 11:43:49;;;;;;;;;;;5.40;99.90;;;;;;5009391;28;19971;-66
2023/01/30 11:46:16;;;;;;;;;;;5.40;99.90;;;;;;5009329;28;19913;-66
2023/01/30 11:48:48;;;;;;;;;;;5.40;99.90;;;;;;5009296;28;19914;-66
2023/01/30 11:51:13;;;;;;;;;;;5.40;99.90;;;;;;5008826;28;19968;-66
2023/01/30 11:53:42;;;;;;;;;;;5.50;99.90;;;;;;5006285;28;19914;-66
2023/01/30 11:56:16;;;;;;;;;;;5.50;99.90;;;;;;5003868;28;20335;-66
2023/01/30 11:58:46;;;;;;;;;;;5.50;99.90;;;;;;5005959;28;20425;-66
2023/01/30 12:01:13;;;;;;;;;;;5.50;99.90;;;;;;5008419;28;19942;-66
2023/01/30 12:03:43;;;;;;;;;;;5.50;99.90;;;;;;5000518;28;20373;-66
2023/01/30 12:06:09;;;;;;;;;;;5.50;99.90;;;;;;5009175;28;19914;-66
2023/01/30 12:08:40;;;;;;;;;;;5.40;99.90;;;;;;5009327;28;20274;-66
2023/01/30 12:11:22;;;;;;;;;;;5.50;99.90;;;;;;5008797;28;19913;-66
2023/01/30 12:13:48;;;;;;;;;;;5.40;99.90;;;;;;5009172;28;20343;-66
2023/01/30 12:16:19;;;;;;;;;;;5.40;99.90;;;;;;5008842;28;19924;-66
2023/01/30 12:18:54;;;;;;;;;;;5.50;99.90;;;;;;5007648;28;19920;-66
2023/01/30 12:21:20;;;;;;;;;;;5.50;99.90;;;;;;4990765;28;20565;-66
2023/01/30 12:23:51;;;;;;;;;;;5.50;99.90;;;;;;5008753;28;19913;-66
2023/01/30 12:26:23;;;;;;;;;;;5.50;99.90;;;;;;5008828;28;20279;-66
2023/01/30 12:29:07;;;;;;;;;;;5.50;99.90;;;;;;5008854;28;19921;-66
2023/01/30 12:31:35;;;;;;;;;;;5.60;99.90;;;;;;5004098;28;19910;-66
2023/01/30 12:34:01;;;;;;;;;;;5.60;99.90;;;;;;5008529;28;19920;-66
2023/01/30 12:36:36;;;;;;;;;;;5.60;99.90;;;;;;5005875;28;20012;-66
2023/01/30 12:39:04;;;;;;;;;;;5.60;99.90;;;;;;5008685;28;19981;-66
2023/01/30 12:41:33;;;;;;;;;;;5.60;99.90;;;;;;5007012;28;20758;-66
2023/01/30 12:44:05;;;;;;;;;;;5.60;99.90;;;;;;5008709;28;19956;-66
2023/01/30 12:46:42;;;;;;;;;;;5.70;99.90;;;;;;5008339;28;20610;-66
2023/01/30 12:49:30;;;;;;;;;;;5.60;99.90;;;;;;5008292;28;19910;-66
2023/01/30 12:52:25;;;;;;;;;;;5.70;99.90;;;;;;5008376;28;20012;-66
2023/01/30 12:54:57;;;;;;;;;;;5.70;99.90;;;;;;4951295;28;19979;-66
2023/01/30 12:57:25;;;;;;;;;;;5.70;99.90;;;;;;5003817;28;20435;-66
2023/01/30 13:00:09;;;;;;;;;;;5.70;99.90;;;;;;5007908;28;20240;-66
2023/01/30 13:02:45;;;;;;;;;;;5.70;99.90;;;;;;4997467;28;20362;-66
2023/01/30 13:05:10;;;;;;;;;;;5.70;99.90;;;;;;5008493;28;19910;-66
2023/01/30 13:07:44;;;;;;;;;;;5.70;99.90;;;;;;5007619;28;19991;-66
2023/01/30 13:10:19;;;;;;;;;;;5.80;99.90;;;;;;5006443;28;19920;-66
2023/01/30 13:12:45;;;;;;;;;;;5.80;99.90;;;;;;4998843;28;20013;-66
2023/01/30 13:15:19;;;;;;;;;;;5.80;99.90;;;;;;5004133;28;20008;-66
2023/01/30 13:18:23;;;;;;;;;;;5.80;99.90;;;;;;4999077;28;19917;-66
2023/01/30 13:20:54;;;;;;;;;;;5.80;99.90;;;;;;5001385;28;20561;-67
2023/01/30 13:23:28;;;;;;;;;;;5.80;99.90;;;;;;5003474;28;19913;-66
2023/01/30 13:26:04;;;;;;;;;;;5.80;99.90;;;;;;4988274;28;20382;-66
2023/01/30 13:28:35;;;;;;;;;;;5.80;99.90;;;;;;4987391;28;20001;-66
2023/01/30 13:31:04;;;;;;;;;;;5.90;99.90;;;;;;4989132;28;19914;-66
2023/01/30 13:33:31;;;;;;;;;;;5.90;99.90;;;;;;5007699;28;20662;-66
2023/01/30 13:36:02;;;;;;;;;;;5.90;99.90;;;;;;5007727;28;20378;-66
2023/01/30 13:38:28;;;;;;;;;;;5.90;99.90;;;;;;5006535;28;19913;-66
2023/01/30 13:40:59;;;;;;;;;;;5.90;99.90;;;;;;4989103;28;20337;-66
2023/01/30 13:43:24;;;;;;;;;;;5.90;99.90;;;;;;4989955;28;19921;-65
2023/01/30 13:45:51;;;;;;;;;;;5.90;99.80;;;;;;4996733;28;19918;-66
2023/01/30 13:48:20;;;;;;;;;;;5.90;99.90;;;;;;4981601;28;19948;-66
2023/01/30 13:50:54;;;;;;;;;;;5.90;99.90;;;;;;5007351;28;20271;-66
2023/01/30 13:53:19;;;;;;;;;;;6.00;99.90;;;;;;5006833;28;19924;-66
2023/01/30 13:55:54;;;;;;;;;;;5.90;99.90;;;;;;5002242;28;19917;-66
2023/01/30 13:58:42;;;;;;;;;;;5.90;99.90;;;;;;5003767;28;19913;-66
2023/01/30 14:01:09;;;;;;;;;;;5.90;99.90;;;;;;4999128;28;19922;-66
2023/01/30 14:03:35;;;;;;;;;;;5.90;99.90;;;;;;4994608;28;20491;-66
2023/01/30 14:06:09;;;;;;;;;;;5.90;99.90;;;;;;4987074;28;19976;-66
2023/01/30 14:08:44;;;;;;;;;;;5.90;99.90;;;;;;4986810;28;19914;-66
2023/01/30 14:11:27;;;;;;;;;;;5.90;99.90;;;;;;4986436;28;19910;-66
2023/01/30 14:13:57;;;;;;;;;;;5.90;99.90;;;;;;4987524;28;20371;-66
2023/01/30 14:16:23;;;;;;;;;;;5.90;99.90;;;;;;4990505;28;19933;-65
2023/01/30 14:18:48;;;;;;;;;;;5.90;99.90;;;;;;5003503;28;19932;-66
2023/01/30 14:21:23;;;;;;;;;;;6.00;99.90;;;;;;5010779;28;19913;-66
2023/01/30 14:24:02;;;;;;;;;;;5.90;99.90;;;;;;5011015;28;19996;-66
2023/01/30 14:26:46;;;;;;;;;;;5.90;99.90;;;;;;5010953;28;19924;-66
2023/01/30 14:29:31;;;;;;;;;;;5.90;99.90;;;;;;5010992;28;20437;-66
2023/01/30 14:31:57;;;;;;;;;;;6.00;99.90;;;;;;5006529;28;19913;-66
2023/01/30 14:34:40;;;;;;;;;;;6.00;99.90;;;;;;5010874;28;20255;-66
2023/01/30 14:37:24;;;;;;;;;;;6.00;99.90;;;;;;5010958;28;19920;-66
2023/01/30 14:39:51;;;;;;;;;;;5.90;99.90;;;;;;5010465;28;20631;-66
2023/01/30 14:42:21;;;;;;;;;;;6.00;99.90;;;;;;5010943;28;19913;-66
2023/01/30 14:45:00;;;;;;;;;;;5.90;99.90;;;;;;5009360;28;19979;-66
2023/01/30 14:47:27;;;;;;;;;;;5.90;99.90;;;;;;5010647;28;19909;-66